sensor_id;sensor_type;location;lat;lon;timestamp;pressure;altitude;pressure_sealevel;temperature;humidity
67052;BME280;53957;47.222;18.670;2023-08-12T06:18:31;100873.47;;;19.61;95.14
67052;BME280;53957;47.222;18.670;2023-08-12T06:21:34;100876.66;;;19.63;91.52
67052;BME280;53957;47.222;18.670;2023-08-12T06:24:36;100873.53;;;20.04;84.21
67052;BME280;53957;47.222;18.670;2023-08-12T06:27:39;100877.00;;;20.25;90.77
67052;BME280;53957;47.222;18.670;2023-08-12T06:30:45;100879.97;;;20.33;89.51
67052;BME280;53957;47.222;18.670;2023-08-12T06:33:48;100883.81;;;20.32;96.95
67052;BME280;53957;47.222;18.670;2023-08-12T06:36:51;100882.66;;;20.54;95.84
67052;BME280;53957;47.222;18.670;2023-08-12T06:39:54;100884.59;;;20.53;100.00
67052;BME280;53957;47.222;18.670;2023-08-12T06:42:57;100877.56;;;20.86;89.80
67052;BME280;53957;47.222;18.670;2023-08-12T06:46:00;100870.84;;;20.71;91.70
67052;BME280;53957;47.222;18.670;2023-08-12T06:49:03;100879.41;;;20.94;85.22
67052;BME280;53957;47.222;18.670;2023-08-12T06:52:06;100881.75;;;20.96;90.68
67052;BME280;53957;47.222;18.670;2023-08-12T06:55:09;100881.22;;;20.69;83.16
67052;BME280;53957;47.222;18.670;2023-08-12T06:58:14;100879.72;;;21.30;82.40
67052;BME280;53957;47.222;18.670;2023-08-12T07:01:20;100883.84;;;21.61;85.98
67052;BME280;53957;47.222;18.670;2023-08-12T07:04:23;100881.47;;;22.00;71.83
67052;BME280;53957;47.222;18.670;2023-08-12T07:07:25;100882.25;;;21.35;73.13
67052;BME280;53957;47.222;18.670;2023-08-12T07:10:28;100875.88;;;21.68;77.93
67052;BME280;53957;47.222;18.670;2023-08-12T07:13:31;100875.31;;;22.72;74.69
67052;BME280;53957;47.222;18.670;2023-08-12T07:16:35;100875.59;;;22.99;67.05
67052;BME280;53957;47.222;18.670;2023-08-12T07:19:40;100873.47;;;22.92;76.38
67052;BME280;53957;47.222;18.670;2023-08-12T07:22:43;100872.56;;;22.56;74.46
67052;BME280;53957;47.222;18.670;2023-08-12T07:25:46;100870.91;;;22.99;66.94
67052;BME280;53957;47.222;18.670;2023-08-12T07:28:49;100879.78;;;22.96;70.72
67052;BME280;53957;47.222;18.670;2023-08-12T07:31:52;100879.47;;;22.25;68.88
67052;BME280;53957;47.222;18.670;2023-08-12T07:34:55;100880.31;;;22.86;74.68
67052;BME280;53957;47.222;18.670;2023-08-12T07:37:58;100880.56;;;22.97;69.19
67052;BME280;53957;47.222;18.670;2023-08-12T07:41:01;100884.09;;;23.65;64.30
67052;BME280;53957;47.222;18.670;2023-08-12T07:44:04;100885.53;;;23.59;64.07
67052;BME280;53957;47.222;18.670;2023-08-12T07:47:07;100885.09;;;24.32;63.56
67052;BME280;53957;47.222;18.670;2023-08-12T07:50:10;100888.41;;;24.64;63.41
67052;BME280;53957;47.222;18.670;2023-08-12T07:53:13;100876.12;;;24.74;58.93
67052;BME280;53957;47.222;18.670;2023-08-12T07:56:16;100876.50;;;24.10;59.09
67052;BME280;53957;47.222;18.670;2023-08-12T07:59:19;100878.53;;;24.56;60.09
67052;BME280;53957;47.222;18.670;2023-08-12T08:02:22;100875.94;;;24.20;65.00
67052;BME280;53957;47.222;18.670;2023-08-12T08:05:26;100878.19;;;24.38;61.03
67052;BME280;53957;47.222;18.670;2023-08-12T08:08:29;100878.88;;;24.54;65.32
67052;BME280;53957;47.222;18.670;2023-08-12T08:11:32;100886.28;;;24.97;56.18
67052;BME280;53957;47.222;18.670;2023-08-12T08:14:37;100874.00;;;24.64;57.22
67052;BME280;53957;47.222;18.670;2023-08-12T08:50:33;100868.78;;;26.50;55.35
67052;BME280;53957;47.222;18.670;2023-08-12T08:53:40;100869.78;;;26.34;49.16
67052;BME280;53957;47.222;18.670;2023-08-12T08:56:44;100860.53;;;26.09;55.55
67052;BME280;53957;47.222;18.670;2023-08-12T08:59:51;100865.94;;;26.77;49.06
67052;BME280;53957;47.222;18.670;2023-08-12T09:02:57;100864.66;;;26.71;54.24
67052;BME280;53957;47.222;18.670;2023-08-12T09:06:00;100866.97;;;26.65;48.29
67052;BME280;53957;47.222;18.670;2023-08-12T09:09:05;100868.09;;;26.60;44.94
67052;BME280;53957;47.222;18.670;2023-08-12T09:12:13;100867.63;;;26.13;49.08
67052;BME280;53957;47.222;18.670;2023-08-12T09:15:16;100855.06;;;26.88;47.79
67052;BME280;53957;47.222;18.670;2023-08-12T09:18:20;100862.16;;;26.96;45.04
67052;BME280;53957;47.222;18.670;2023-08-12T09:21:27;100858.91;;;26.79;43.99
67052;BME280;53957;47.222;18.670;2023-08-12T09:24:30;100854.22;;;27.39;46.19
67052;BME280;53957;47.222;18.670;2023-08-12T09:27:33;100848.03;;;27.42;47.78
67052;BME280;53957;47.222;18.670;2023-08-12T09:30:36;100857.31;;;27.30;43.67
67052;BME280;53957;47.222;18.670;2023-08-12T09:33:39;100843.66;;;27.38;45.76
67052;BME280;53957;47.222;18.670;2023-08-12T09:36:42;100847.94;;;27.31;41.44
67052;BME280;53957;47.222;18.670;2023-08-12T09:39:47;100847.13;;;27.24;41.52
67052;BME280;53957;47.222;18.670;2023-08-12T09:42:50;100851.78;;;27.23;42.71
67052;BME280;53957;47.222;18.670;2023-08-12T09:45:56;100852.06;;;27.70;39.63
67052;BME280;53957;47.222;18.670;2023-08-12T09:49:00;100854.09;;;27.95;38.46
67052;BME280;53957;47.222;18.670;2023-08-12T09:52:04;100841.91;;;27.82;44.74
67052;BME280;53957;47.222;18.670;2023-08-12T09:55:08;100840.13;;;28.47;40.12
67052;BME280;53957;47.222;18.670;2023-08-12T09:58:12;100837.75;;;28.17;38.51
67052;BME280;53957;47.222;18.670;2023-08-12T10:01:19;100832.66;;;28.19;43.38
67052;BME280;53957;47.222;18.670;2023-08-12T10:04:29;100829.91;;;28.08;40.30
67052;BME280;53957;47.222;18.670;2023-08-12T10:07:36;100826.81;;;28.46;38.70
67052;BME280;53957;47.222;18.670;2023-08-12T10:10:39;100826.03;;;28.67;37.97
67052;BME280;53957;47.222;18.670;2023-08-12T10:13:42;100830.37;;;28.97;39.58
67052;BME280;53957;47.222;18.670;2023-08-12T10:16:46;100821.31;;;28.42;39.58
67052;BME280;53957;47.222;18.670;2023-08-12T10:19:54;100820.16;;;28.94;39.18
67052;BME280;53957;47.222;18.670;2023-08-12T10:22:59;100826.81;;;29.07;38.80
67052;BME280;53957;47.222;18.670;2023-08-12T10:26:05;100822.41;;;29.42;40.45
67052;BME280;53957;47.222;18.670;2023-08-12T10:29:08;100827.16;;;29.16;38.85
67052;BME280;53957;47.222;18.670;2023-08-12T10:32:12;100811.44;;;29.42;40.48
67052;BME280;53957;47.222;18.670;2023-08-12T10:35:16;100815.84;;;28.92;37.97
67052;BME280;53957;47.222;18.670;2023-08-12T10:38:20;100815.06;;;28.67;42.21
67052;BME280;53957;47.222;18.670;2023-08-12T10:41:27;100811.16;;;28.86;38.78
67052;BME280;53957;47.222;18.670;2023-08-12T10:44:49;100806.03;;;28.63;37.35
67052;BME280;53957;47.222;18.670;2023-08-12T10:51:14;100802.50;;;28.30;41.20
67052;BME280;53957;47.222;18.670;2023-08-12T10:57:36;100790.75;;;28.36;43.60
67052;BME280;53957;47.222;18.670;2023-08-12T11:00:43;100787.22;;;28.72;42.36
67052;BME280;53957;47.222;18.670;2023-08-12T11:03:48;100790.69;;;29.12;38.88
67052;BME280;53957;47.222;18.670;2023-08-12T11:06:52;100786.44;;;28.93;42.10
67052;BME280;53957;47.222;18.670;2023-08-12T11:09:59;100779.00;;;28.65;40.72
67052;BME280;53957;47.222;18.670;2023-08-12T11:13:08;100786.81;;;28.99;39.71
67052;BME280;53957;47.222;18.670;2023-08-12T11:16:11;100782.13;;;28.96;42.14
67052;BME280;53957;47.222;18.670;2023-08-12T11:19:17;100768.41;;;28.81;43.27
67052;BME280;53957;47.222;18.670;2023-08-12T11:22:20;100773.81;;;29.21;40.02
67052;BME280;53957;47.222;18.670;2023-08-12T11:25:24;100765.66;;;28.96;41.69
67052;BME280;53957;47.222;18.670;2023-08-12T11:28:27;100765.56;;;29.32;38.50
67052;BME280;53957;47.222;18.670;2023-08-12T11:31:30;100747.62;;;28.84;39.78
67052;BME280;53957;47.222;18.670;2023-08-12T11:34:33;100760.59;;;28.69;43.20
67052;BME280;53957;47.222;18.670;2023-08-12T11:37:41;100745.69;;;28.77;41.94
67052;BME280;53957;47.222;18.670;2023-08-12T11:40:44;100754.16;;;29.22;40.22
67052;BME280;53957;47.222;18.670;2023-08-12T11:43:49;100751.81;;;29.24;38.12
67052;BME280;53957;47.222;18.670;2023-08-12T11:46:52;100751.16;;;28.84;39.81
67052;BME280;53957;47.222;18.670;2023-08-12T11:49:55;100746.78;;;29.05;38.64
67052;BME280;53957;47.222;18.670;2023-08-12T11:52:57;100739.00;;;28.35;40.46
67052;BME280;53957;47.222;18.670;2023-08-12T11:56:01;100748.03;;;28.82;39.05
67052;BME280;53957;47.222;18.670;2023-08-12T11:59:04;100743.69;;;28.96;43.17
67052;BME280;53957;47.222;18.670;2023-08-12T12:02:08;100732.72;;;28.92;40.61
67052;BME280;53957;47.222;18.670;2023-08-12T12:05:11;100739.38;;;28.66;39.38
67052;BME280;53957;47.222;18.670;2023-08-12T12:08:14;100731.16;;;28.80;43.49
67052;BME280;53957;47.222;18.670;2023-08-12T12:11:18;100726.47;;;28.73;42.16
67052;BME280;53957;47.222;18.670;2023-08-12T12:14:21;100725.63;;;28.98;39.45
67052;BME280;53957;47.222;18.670;2023-08-12T12:17:24;100721.78;;;28.49;42.70
67052;BME280;53957;47.222;18.670;2023-08-12T12:49:42;100699.78;;;28.78;40.95
67052;BME280;53957;47.222;18.670;2023-08-12T12:52:46;100693.09;;;28.89;38.53
67052;BME280;53957;47.222;18.670;2023-08-12T12:55:48;100695.50;;;28.73;39.02
67052;BME280;53957;47.222;18.670;2023-08-12T12:58:51;100682.56;;;28.77;38.91
67052;BME280;53957;47.222;18.670;2023-08-12T13:01:54;100679.47;;;28.42;40.57
67052;BME280;53957;47.222;18.670;2023-08-12T13:04:58;100684.06;;;28.92;41.92
67052;BME280;53957;47.222;18.670;2023-08-12T13:08:00;100673.53;;;28.73;43.31
67052;BME280;53957;47.222;18.670;2023-08-12T13:11:03;100673.09;;;28.85;41.05
67052;BME280;53957;47.222;18.670;2023-08-12T13:14:06;100668.13;;;28.15;42.20
67052;BME280;53957;47.222;18.670;2023-08-12T13:17:09;100671.56;;;28.77;38.87
67052;BME280;53957;47.222;18.670;2023-08-12T13:20:12;100668.50;;;28.39;41.17
67052;BME280;53957;47.222;18.670;2023-08-12T13:23:15;100666.88;;;28.74;42.39
67052;BME280;53957;47.222;18.670;2023-08-12T13:26:19;100664.94;;;28.53;42.03
67052;BME280;53957;47.222;18.670;2023-08-12T13:29:22;100659.78;;;28.66;41.38
67052;BME280;53957;47.222;18.670;2023-08-12T13:32:25;100660.03;;;29.18;36.62
67052;BME280;53957;47.222;18.670;2023-08-12T13:35:28;100654.37;;;28.37;40.65
67052;BME280;53957;47.222;18.670;2023-08-12T13:38:31;100645.38;;;28.40;41.80
67052;BME280;53957;47.222;18.670;2023-08-12T13:41:34;100651.28;;;28.24;38.50
67052;BME280;53957;47.222;18.670;2023-08-12T13:44:37;100643.31;;;28.80;37.89
67052;BME280;53957;47.222;18.670;2023-08-12T13:47:40;100644.16;;;28.59;41.75
67052;BME280;53957;47.222;18.670;2023-08-12T13:50:43;100639.50;;;28.41;42.34
67052;BME280;53957;47.222;18.670;2023-08-12T13:53:46;100637.16;;;28.33;42.96
67052;BME280;53957;47.222;18.670;2023-08-12T13:56:49;100638.72;;;27.83;43.56
67052;BME280;53957;47.222;18.670;2023-08-12T13:59:52;100631.69;;;28.18;44.30
67052;BME280;53957;47.222;18.670;2023-08-12T14:02:54;100639.81;;;28.80;39.49
67052;BME280;53957;47.222;18.670;2023-08-12T14:05:57;100630.78;;;28.72;39.15
67052;BME280;53957;47.222;18.670;2023-08-12T14:09:00;100620.69;;;28.29;40.30
67052;BME280;53957;47.222;18.670;2023-08-12T14:12:04;100626.94;;;28.51;40.83
67052;BME280;53957;47.222;18.670;2023-08-12T14:15:07;100633.16;;;28.59;40.03
67052;BME280;53957;47.222;18.670;2023-08-12T14:18:10;100619.13;;;28.32;40.91
67052;BME280;53957;47.222;18.670;2023-08-12T14:21:13;100621.47;;;28.26;40.62
67052;BME280;53957;47.222;18.670;2023-08-12T14:24:16;100619.53;;;28.16;42.70
67052;BME280;53957;47.222;18.670;2023-08-12T14:27:19;100614.47;;;28.18;40.67
67052;BME280;53957;47.222;18.670;2023-08-12T14:30:25;100613.28;;;28.01;41.80
67052;BME280;53957;47.222;18.670;2023-08-12T14:33:28;100602.69;;;27.92;43.16
67052;BME280;53957;47.222;18.670;2023-08-12T14:36:31;100607.41;;;28.06;44.47
67052;BME280;53957;47.222;18.670;2023-08-12T14:39:34;100594.84;;;28.01;41.97
67052;BME280;53957;47.222;18.670;2023-08-12T14:42:37;100605.81;;;28.26;41.87
67052;BME280;53957;47.222;18.670;2023-08-12T14:45:40;100594.47;;;28.17;42.06
67052;BME280;53957;47.222;18.670;2023-08-12T14:48:43;100605.03;;;27.97;42.65
67052;BME280;53957;47.222;18.670;2023-08-12T14:51:46;100596.81;;;27.57;44.20
67052;BME280;53957;47.222;18.670;2023-08-12T14:54:49;100589.78;;;28.07;40.79
67052;BME280;53957;47.222;18.670;2023-08-12T14:57:52;100590.19;;;27.58;39.93
67052;BME280;53957;47.222;18.670;2023-08-12T15:00:55;100591.72;;;28.10;38.81
67052;BME280;53957;47.222;18.670;2023-08-12T15:03:59;100583.91;;;27.76;44.68
67052;BME280;53957;47.222;18.670;2023-08-12T15:07:02;100576.09;;;27.74;43.17
67052;BME280;53957;47.222;18.670;2023-08-12T15:10:05;100580.75;;;28.10;39.60
67052;BME280;53957;47.222;18.670;2023-08-12T15:13:08;100574.91;;;27.79;42.11
67052;BME280;53957;47.222;18.670;2023-08-12T15:16:11;100569.03;;;27.59;43.32
67052;BME280;53957;47.222;18.670;2023-08-12T15:19:14;100563.88;;;27.28;46.10
67052;BME280;53957;47.222;18.670;2023-08-12T15:22:17;100558.84;;;27.77;39.93
67052;BME280;53957;47.222;18.670;2023-08-12T15:25:20;100565.50;;;27.80;41.66
67052;BME280;53957;47.222;18.670;2023-08-12T15:28:23;100562.69;;;27.08;45.39
67052;BME280;53957;47.222;18.670;2023-08-12T15:31:26;100554.16;;;27.56;43.40
67052;BME280;53957;47.222;18.670;2023-08-12T15:34:29;100544.28;;;27.08;44.29
67052;BME280;53957;47.222;18.670;2023-08-12T15:37:32;100543.13;;;27.13;44.26
67052;BME280;53957;47.222;18.670;2023-08-12T15:40:38;100547.06;;;27.19;45.54
67052;BME280;53957;47.222;18.670;2023-08-12T15:43:42;100536.84;;;27.09;45.66
67052;BME280;53957;47.222;18.670;2023-08-12T15:46:44;100539.22;;;27.10;46.64
67052;BME280;53957;47.222;18.670;2023-08-12T15:49:48;100540.75;;;26.93;48.46
67052;BME280;53957;47.222;18.670;2023-08-12T15:52:50;100536.47;;;26.99;42.99
67052;BME280;53957;47.222;18.670;2023-08-12T15:55:53;100538.25;;;26.59;46.48
67052;BME280;53957;47.222;18.670;2023-08-12T15:58:56;100534.56;;;26.23;46.44
67052;BME280;53957;47.222;18.670;2023-08-12T16:01:59;100523.22;;;26.17;48.05
67052;BME280;53957;47.222;18.670;2023-08-12T16:05:03;100542.84;;;26.41;46.04
67052;BME280;53957;47.222;18.670;2023-08-12T16:08:07;100531.00;;;26.15;48.76
67052;BME280;53957;47.222;18.670;2023-08-12T16:11:11;100530.25;;;26.18;46.63
67052;BME280;53957;47.222;18.670;2023-08-12T16:14:14;100526.34;;;26.19;44.42
67052;BME280;53957;47.222;18.670;2023-08-12T16:17:17;100523.34;;;26.49;45.64
67052;BME280;53957;47.222;18.670;2023-08-12T16:20:20;100530.31;;;25.69;52.53
67052;BME280;53957;47.222;18.670;2023-08-12T16:23:24;100518.22;;;25.74;46.49
67052;BME280;53957;47.222;18.670;2023-08-12T16:26:26;100522.13;;;25.77;45.55
67052;BME280;53957;47.222;18.670;2023-08-12T16:29:29;100520.62;;;25.79;46.53
67052;BME280;53957;47.222;18.670;2023-08-12T16:32:32;100516.88;;;25.50;49.50
67052;BME280;53957;47.222;18.670;2023-08-12T16:35:36;100520.16;;;25.70;49.76
67052;BME280;53957;47.222;18.670;2023-08-12T16:38:38;100520.00;;;25.11;55.44
67052;BME280;53957;47.222;18.670;2023-08-12T16:41:42;100517.72;;;25.20;52.61
67052;BME280;53957;47.222;18.670;2023-08-12T16:44:44;100530.56;;;25.16;53.72
67052;BME280;53957;47.222;18.670;2023-08-12T16:47:47;100520.44;;;25.16;54.07
67052;BME280;53957;47.222;18.670;2023-08-12T16:50:50;100521.50;;;25.04;52.00
67052;BME280;53957;47.222;18.670;2023-08-12T16:53:53;100520.72;;;25.07;53.16
67052;BME280;53957;47.222;18.670;2023-08-12T16:56:56;100519.72;;;24.82;53.09
67052;BME280;53957;47.222;18.670;2023-08-12T17:00:00;100518.37;;;24.68;57.14
67052;BME280;53957;47.222;18.670;2023-08-12T17:03:07;100524.56;;;24.65;60.95
67052;BME280;53957;47.222;18.670;2023-08-12T17:06:10;100525.56;;;24.53;57.18
67052;BME280;53957;47.222;18.670;2023-08-12T17:09:13;100514.53;;;24.42;62.04
67052;BME280;53957;47.222;18.670;2023-08-12T17:12:19;100517.06;;;24.28;64.38
67052;BME280;53957;47.222;18.670;2023-08-12T17:15:21;100525.13;;;24.21;66.90
67052;BME280;53957;47.222;18.670;2023-08-12T17:18:25;100522.00;;;24.19;69.79
67052;BME280;53957;47.222;18.670;2023-08-12T17:21:28;100523.16;;;24.18;70.85
67052;BME280;53957;47.222;18.670;2023-08-12T17:24:32;100514.13;;;24.14;69.10
67052;BME280;53957;47.222;18.670;2023-08-12T17:27:35;100528.06;;;24.08;74.41
67052;BME280;53957;47.222;18.670;2023-08-12T17:30:38;100527.25;;;24.04;74.57
67052;BME280;53957;47.222;18.670;2023-08-12T17:33:41;100534.47;;;23.93;71.57
67052;BME280;53957;47.222;18.670;2023-08-12T17:36:44;100526.56;;;23.88;75.34
67052;BME280;53957;47.222;18.670;2023-08-12T17:39:47;100527.41;;;23.65;81.73
67052;BME280;53957;47.222;18.670;2023-08-12T17:42:53;100517.44;;;23.50;86.03
67052;BME280;53957;47.222;18.670;2023-08-12T17:45:56;100525.59;;;23.26;89.96
67052;BME280;53957;47.222;18.670;2023-08-12T17:48:59;100523.94;;;23.02;95.26
67052;BME280;53957;47.222;18.670;2023-08-12T17:52:03;100535.97;;;22.81;98.52
67052;BME280;53957;47.222;18.670;2023-08-12T17:55:06;100527.19;;;22.68;99.07
67052;BME280;53957;47.222;18.670;2023-08-12T17:58:09;100527.09;;;22.45;100.00
67052;BME280;53957;47.222;18.670;2023-08-12T18:01:12;100534.91;;;22.31;100.00
67052;BME280;53957;47.222;18.670;2023-08-12T18:04:15;100536.88;;;22.14;100.00
67052;BME280;53957;47.222;18.670;2023-08-12T18:07:18;100528.84;;;22.02;100.00
67052;BME280;53957;47.222;18.670;2023-08-12T18:10:21;100534.81;;;21.92;100.00
67052;BME280;53957;47.222;18.670;2023-08-12T18:13:24;100536.06;;;21.78;100.00
67052;BME280;53957;47.222;18.670;2023-08-12T18:16:27;100531.09;;;21.52;100.00
67052;BME280;53957;47.222;18.670;2023-08-12T18:19:30;100542.84;;;21.40;100.00
67052;BME280;53957;47.222;18.670;2023-08-12T18:22:34;100545.63;;;21.28;100.00
67052;BME280;53957;47.222;18.670;2023-08-12T18:25:37;100543.44;;;21.05;100.00
67052;BME280;53957;47.222;18.670;2023-08-12T18:28:41;100545.34;;;20.88;100.00
67052;BME280;53957;47.222;18.670;2023-08-12T18:31:47;100543.13;;;20.78;100.00
67052;BME280;53957;47.222;18.670;2023-08-12T18:34:50;100548.66;;;20.69;100.00
67052;BME280;53957;47.222;18.670;2023-08-12T18:37:54;100554.22;;;20.48;100.00
67052;BME280;53957;47.222;18.670;2023-08-12T18:40:58;100564.06;;;20.40;100.00
67052;BME280;53957;47.222;18.670;2023-08-12T18:44:01;100556.41;;;20.30;100.00
67052;BME280;53957;47.222;18.670;2023-08-12T18:47:04;100558.87;;;20.35;100.00
67052;BME280;53957;47.222;18.670;2023-08-12T18:50:07;100568.25;;;20.13;100.00
67052;BME280;53957;47.222;18.670;2023-08-12T18:53:10;100567.13;;;20.14;100.00
67052;BME280;53957;47.222;18.670;2023-08-12T18:56:13;100565.78;;;19.95;100.00
67052;BME280;53957;47.222;18.670;2023-08-12T18:59:16;100568.41;;;19.58;100.00
67052;BME280;53957;47.222;18.670;2023-08-12T19:02:19;100573.22;;;19.53;100.00
67052;BME280;53957;47.222;18.670;2023-08-12T19:05:23;100578.03;;;19.47;100.00
67052;BME280;53957;47.222;18.670;2023-08-12T19:08:45;100578.72;;;19.44;100.00
67052;BME280;53957;47.222;18.670;2023-08-12T19:11:49;100587.47;;;19.28;100.00
67052;BME280;53957;47.222;18.670;2023-08-12T19:14:51;100591.19;;;19.24;100.00
67052;BME280;53957;47.222;18.670;2023-08-12T19:18:35;100593.53;;;19.25;100.00
67052;BME280;53957;47.222;18.670;2023-08-12T19:21:38;100590.84;;;19.25;100.00
67052;BME280;53957;47.222;18.670;2023-08-12T19:24:42;100589.34;;;19.15;100.00
67052;BME280;53957;47.222;18.670;2023-08-12T19:27:45;100587.47;;;19.07;100.00
67052;BME280;53957;47.222;18.670;2023-08-12T19:30:49;100590.06;;;19.04;100.00
67052;BME280;53957;47.222;18.670;2023-08-12T19:33:52;100593.28;;;18.76;100.00
67052;BME280;53957;47.222;18.670;2023-08-12T19:36:56;100590.38;;;18.81;100.00
67052;BME280;53957;47.222;18.670;2023-08-12T19:39:58;100595.91;;;18.63;100.00
67052;BME280;53957;47.222;18.670;2023-08-12T19:43:01;100592.09;;;18.64;100.00
67052;BME280;53957;47.222;18.670;2023-08-12T19:46:05;100594.69;;;18.52;100.00
67052;BME280;53957;47.222;18.670;2023-08-12T19:49:08;100600.75;;;18.49;100.00
67052;BME280;53957;47.222;18.670;2023-08-12T19:52:11;100595.19;;;18.45;100.00
67052;BME280;53957;47.222;18.670;2023-08-12T19:55:15;100589.72;;;18.33;100.00
67052;BME280;53957;47.222;18.670;2023-08-12T19:58:18;100595.81;;;18.21;100.00
67052;BME280;53957;47.222;18.670;2023-08-12T20:01:21;100594.41;;;18.15;100.00
67052;BME280;53957;47.222;18.670;2023-08-12T20:04:24;100598.69;;;18.16;100.00
67052;BME280;53957;47.222;18.670;2023-08-12T20:07:27;100602.38;;;18.02;100.00
67052;BME280;53957;47.222;18.670;2023-08-12T20:10:30;100591.31;;;17.95;100.00
67052;BME280;53957;47.222;18.670;2023-08-12T20:13:35;100600.97;;;17.96;100.00
